sensor_id;sensor_type;location;lat;lon;timestamp;P1;durP1;ratioP1;P2;durP2;ratioP2
23732;SDS011;12047;53.450;-2.286;2023-09-19T00:04:39;7.50;;;1.73;;
23732;SDS011;12047;53.450;-2.286;2023-09-19T00:09:41;11.75;;;2.05;;
23732;SDS011;12047;53.450;-2.286;2023-09-19T00:14:44;8.20;;;1.65;;
23732;SDS011;12047;53.450;-2.286;2023-09-19T00:19:45;9.02;;;1.90;;
23732;SDS011;12047;53.450;-2.286;2023-09-19T00:24:46;13.45;;;1.98;;
23732;SDS011;12047;53.450;-2.286;2023-09-19T00:29:48;10.55;;;2.00;;
23732;SDS011;12047;53.450;-2.286;2023-09-19T00:34:53;9.70;;;1.92;;
23732;SDS011;12047;53.450;-2.286;2023-09-19T00:39:54;12.05;;;2.20;;
23732;SDS011;12047;53.450;-2.286;2023-09-19T00:44:54;6.68;;;1.33;;
23732;SDS011;12047;53.450;-2.286;2023-09-19T00:49:55;8.95;;;2.30;;
23732;SDS011;12047;53.450;-2.286;2023-09-19T00:54:56;12.88;;;2.50;;
23732;SDS011;12047;53.450;-2.286;2023-09-19T00:59:56;9.00;;;1.90;;
23732;SDS011;12047;53.450;-2.286;2023-09-19T01:04:57;14.60;;;2.30;;
23732;SDS011;12047;53.450;-2.286;2023-09-19T01:09:59;12.15;;;2.00;;
23732;SDS011;12047;53.450;-2.286;2023-09-19T01:15:06;11.13;;;2.08;;
23732;SDS011;12047;53.450;-2.286;2023-09-19T01:20:53;13.50;;;2.25;;
23732;SDS011;12047;53.450;-2.286;2023-09-19T01:26:07;17.92;;;2.85;;
23732;SDS011;12047;53.450;-2.286;2023-09-19T01:31:43;16.20;;;2.58;;
23732;SDS011;12047;53.450;-2.286;2023-09-19T01:36:45;19.52;;;2.95;;
23732;SDS011;12047;53.450;-2.286;2023-09-19T01:41:56;9.80;;;2.50;;
23732;SDS011;12047;53.450;-2.286;2023-09-19T01:47:18;13.80;;;2.30;;
23732;SDS011;12047;53.450;-2.286;2023-09-19T01:52:28;15.83;;;2.97;;
23732;SDS011;12047;53.450;-2.286;2023-09-19T02:03:10;14.30;;;2.60;;
23732;SDS011;12047;53.450;-2.286;2023-09-19T02:08:17;13.43;;;2.90;;
23732;SDS011;12047;53.450;-2.286;2023-09-19T02:13:19;15.07;;;2.97;;
23732;SDS011;12047;53.450;-2.286;2023-09-19T02:18:21;16.35;;;3.10;;
23732;SDS011;12047;53.450;-2.286;2023-09-19T02:23:21;19.02;;;3.72;;
23732;SDS011;12047;53.450;-2.286;2023-09-19T02:28:22;16.55;;;3.00;;
23732;SDS011;12047;53.450;-2.286;2023-09-19T02:33:22;15.02;;;3.13;;
23732;SDS011;12047;53.450;-2.286;2023-09-19T02:38:23;20.63;;;3.53;;
23732;SDS011;12047;53.450;-2.286;2023-09-19T02:43:25;21.48;;;3.08;;
23732;SDS011;12047;53.450;-2.286;2023-09-19T02:48:26;19.30;;;3.35;;
23732;SDS011;12047;53.450;-2.286;2023-09-19T02:53:26;16.10;;;3.28;;
23732;SDS011;12047;53.450;-2.286;2023-09-19T02:58:27;23.02;;;3.40;;
23732;SDS011;12047;53.450;-2.286;2023-09-19T03:03:30;19.73;;;3.17;;
23732;SDS011;12047;53.450;-2.286;2023-09-19T03:08:31;16.92;;;3.25;;
23732;SDS011;12047;53.450;-2.286;2023-09-19T03:13:36;16.00;;;3.17;;
23732;SDS011;12047;53.450;-2.286;2023-09-19T03:18:38;16.10;;;3.28;;
23732;SDS011;12047;53.450;-2.286;2023-09-19T03:33:59;26.55;;;4.18;;
23732;SDS011;12047;53.450;-2.286;2023-09-19T03:38:59;16.35;;;3.45;;
23732;SDS011;12047;53.450;-2.286;2023-09-19T03:49:31;18.70;;;3.55;;
23732;SDS011;12047;53.450;-2.286;2023-09-19T03:54:31;16.52;;;3.50;;
23732;SDS011;12047;53.450;-2.286;2023-09-19T04:04:42;18.27;;;3.70;;
23732;SDS011;12047;53.450;-2.286;2023-09-19T04:09:43;17.63;;;3.20;;
23732;SDS011;12047;53.450;-2.286;2023-09-19T04:25:04;20.73;;;3.42;;
23732;SDS011;12047;53.450;-2.286;2023-09-19T04:40:23;20.83;;;3.58;;
23732;SDS011;12047;53.450;-2.286;2023-09-19T04:45:27;20.88;;;3.63;;
23732;SDS011;12047;53.450;-2.286;2023-09-19T04:50:48;22.42;;;3.50;;
23732;SDS011;12047;53.450;-2.286;2023-09-19T04:55:50;24.67;;;3.67;;
23732;SDS011;12047;53.450;-2.286;2023-09-19T05:01:13;15.18;;;3.45;;
23732;SDS011;12047;53.450;-2.286;2023-09-19T05:06:15;22.27;;;3.63;;
23732;SDS011;12047;53.450;-2.286;2023-09-19T05:11:15;18.98;;;3.67;;
23732;SDS011;12047;53.450;-2.286;2023-09-19T05:16:16;18.92;;;3.75;;
23732;SDS011;12047;53.450;-2.286;2023-09-19T05:21:17;17.90;;;3.33;;
23732;SDS011;12047;53.450;-2.286;2023-09-19T05:26:18;25.70;;;3.92;;
23732;SDS011;12047;53.450;-2.286;2023-09-19T05:31:18;15.55;;;3.45;;
23732;SDS011;12047;53.450;-2.286;2023-09-19T05:36:18;19.13;;;3.13;;
23732;SDS011;12047;53.450;-2.286;2023-09-19T05:41:19;15.48;;;3.08;;
23732;SDS011;12047;53.450;-2.286;2023-09-19T05:46:21;16.83;;;3.30;;
23732;SDS011;12047;53.450;-2.286;2023-09-19T05:51:22;17.02;;;3.60;;
23732;SDS011;12047;53.450;-2.286;2023-09-19T05:56:23;23.60;;;3.90;;
23732;SDS011;12047;53.450;-2.286;2023-09-19T06:01:24;25.48;;;4.40;;
23732;SDS011;12047;53.450;-2.286;2023-09-19T06:06:24;17.33;;;3.17;;
23732;SDS011;12047;53.450;-2.286;2023-09-19T06:11:24;20.10;;;3.83;;
23732;SDS011;12047;53.450;-2.286;2023-09-19T06:16:26;16.65;;;4.35;;
23732;SDS011;12047;53.450;-2.286;2023-09-19T06:21:27;18.23;;;4.10;;
23732;SDS011;12047;53.450;-2.286;2023-09-19T06:26:27;25.13;;;4.20;;
23732;SDS011;12047;53.450;-2.286;2023-09-19T06:31:29;16.00;;;3.58;;
23732;SDS011;12047;53.450;-2.286;2023-09-19T06:36:29;13.85;;;4.22;;
23732;SDS011;12047;53.450;-2.286;2023-09-19T06:41:29;14.63;;;3.83;;
23732;SDS011;12047;53.450;-2.286;2023-09-19T06:46:30;22.50;;;3.83;;
23732;SDS011;12047;53.450;-2.286;2023-09-19T06:51:34;14.88;;;4.18;;
23732;SDS011;12047;53.450;-2.286;2023-09-19T06:56:36;14.38;;;3.78;;
23732;SDS011;12047;53.450;-2.286;2023-09-19T07:01:36;14.90;;;3.87;;
23732;SDS011;12047;53.450;-2.286;2023-09-19T07:06:37;11.43;;;3.70;;
23732;SDS011;12047;53.450;-2.286;2023-09-19T07:11:38;16.48;;;4.13;;
23732;SDS011;12047;53.450;-2.286;2023-09-19T07:16:38;13.98;;;4.18;;
23732;SDS011;12047;53.450;-2.286;2023-09-19T07:21:40;15.75;;;5.13;;
23732;SDS011;12047;53.450;-2.286;2023-09-19T07:26:40;16.02;;;4.63;;
23732;SDS011;12047;53.450;-2.286;2023-09-19T07:31:41;11.40;;;4.22;;
23732;SDS011;12047;53.450;-2.286;2023-09-19T07:36:42;14.85;;;4.50;;
23732;SDS011;12047;53.450;-2.286;2023-09-19T07:41:42;17.77;;;4.73;;
23732;SDS011;12047;53.450;-2.286;2023-09-19T07:46:43;14.60;;;3.95;;
23732;SDS011;12047;53.450;-2.286;2023-09-19T07:51:44;13.40;;;4.10;;
23732;SDS011;12047;53.450;-2.286;2023-09-19T07:56:47;19.10;;;4.38;;
23732;SDS011;12047;53.450;-2.286;2023-09-19T08:01:47;10.05;;;3.50;;
23732;SDS011;12047;53.450;-2.286;2023-09-19T08:06:48;7.55;;;2.47;;
23732;SDS011;12047;53.450;-2.286;2023-09-19T08:11:51;8.55;;;2.85;;
23732;SDS011;12047;53.450;-2.286;2023-09-19T08:16:52;9.65;;;2.55;;
23732;SDS011;12047;53.450;-2.286;2023-09-19T08:22:00;6.18;;;2.10;;
23732;SDS011;12047;53.450;-2.286;2023-09-19T08:27:03;4.23;;;1.93;;
23732;SDS011;12047;53.450;-2.286;2023-09-19T08:32:05;4.65;;;1.58;;
23732;SDS011;12047;53.450;-2.286;2023-09-19T08:37:05;3.20;;;1.17;;
23732;SDS011;12047;53.450;-2.286;2023-09-19T08:42:06;2.28;;;0.95;;
23732;SDS011;12047;53.450;-2.286;2023-09-19T08:47:11;4.55;;;1.10;;
23732;SDS011;12047;53.450;-2.286;2023-09-19T08:52:37;2.78;;;1.25;;
23732;SDS011;12047;53.450;-2.286;2023-09-19T08:57:41;1.35;;;0.60;;
23732;SDS011;12047;53.450;-2.286;2023-09-19T09:02:48;2.53;;;1.00;;
23732;SDS011;12047;53.450;-2.286;2023-09-19T09:07:50;2.85;;;0.57;;
23732;SDS011;12047;53.450;-2.286;2023-09-19T09:12:52;1.77;;;0.45;;
23732;SDS011;12047;53.450;-2.286;2023-09-19T09:17:56;4.05;;;0.77;;
23732;SDS011;12047;53.450;-2.286;2023-09-19T09:22:58;1.60;;;0.57;;
23732;SDS011;12047;53.450;-2.286;2023-09-19T09:28:03;0.60;;;0.30;;
23732;SDS011;12047;53.450;-2.286;2023-09-19T09:33:08;1.27;;;0.30;;
23732;SDS011;12047;53.450;-2.286;2023-09-19T09:38:11;0.95;;;0.20;;
23732;SDS011;12047;53.450;-2.286;2023-09-19T09:43:24;1.45;;;0.30;;
23732;SDS011;12047;53.450;-2.286;2023-09-19T09:48:27;5.00;;;0.70;;
23732;SDS011;12047;53.450;-2.286;2023-09-19T09:53:32;0.82;;;0.13;;
23732;SDS011;12047;53.450;-2.286;2023-09-19T09:58:36;1.27;;;0.20;;
23732;SDS011;12047;53.450;-2.286;2023-09-19T10:03:40;0.55;;;0.20;;
23732;SDS011;12047;53.450;-2.286;2023-09-19T10:09:07;2.38;;;0.40;;
23732;SDS011;12047;53.450;-2.286;2023-09-19T10:14:12;2.53;;;0.70;;
23732;SDS011;12047;53.450;-2.286;2023-09-19T10:19:16;0.57;;;0.30;;
23732;SDS011;12047;53.450;-2.286;2023-09-19T10:24:35;1.08;;;0.30;;
23732;SDS011;12047;53.450;-2.286;2023-09-19T10:29:39;1.63;;;0.30;;
23732;SDS011;12047;53.450;-2.286;2023-09-19T10:34:39;3.03;;;0.40;;
23732;SDS011;12047;53.450;-2.286;2023-09-19T10:39:41;2.72;;;0.30;;
23732;SDS011;12047;53.450;-2.286;2023-09-19T10:44:51;4.68;;;0.70;;
23732;SDS011;12047;53.450;-2.286;2023-09-19T10:49:55;4.15;;;0.68;;
23732;SDS011;12047;53.450;-2.286;2023-09-19T10:54:55;4.13;;;0.60;;
23732;SDS011;12047;53.450;-2.286;2023-09-19T11:00:06;1.98;;;0.77;;
23732;SDS011;12047;53.450;-2.286;2023-09-19T11:05:24;5.13;;;0.75;;
23732;SDS011;12047;53.450;-2.286;2023-09-19T11:21:38;5.35;;;1.33;;
23732;SDS011;12047;53.450;-2.286;2023-09-19T11:26:40;2.10;;;0.60;;
23732;SDS011;12047;53.450;-2.286;2023-09-19T11:31:48;1.77;;;0.50;;
23732;SDS011;12047;53.450;-2.286;2023-09-19T11:36:49;3.35;;;1.20;;
23732;SDS011;12047;53.450;-2.286;2023-09-19T11:41:50;3.67;;;0.57;;
23732;SDS011;12047;53.450;-2.286;2023-09-19T11:46:56;4.50;;;0.77;;
23732;SDS011;12047;53.450;-2.286;2023-09-19T11:51:59;1.48;;;0.50;;
23732;SDS011;12047;53.450;-2.286;2023-09-19T11:57:08;2.50;;;0.93;;
23732;SDS011;12047;53.450;-2.286;2023-09-19T12:02:09;2.58;;;0.52;;
23732;SDS011;12047;53.450;-2.286;2023-09-19T12:07:31;4.07;;;0.60;;
23732;SDS011;12047;53.450;-2.286;2023-09-19T12:12:49;5.25;;;0.70;;
23732;SDS011;12047;53.450;-2.286;2023-09-19T12:17:50;2.67;;;0.90;;
23732;SDS011;12047;53.450;-2.286;2023-09-19T12:22:51;3.28;;;0.80;;
23732;SDS011;12047;53.450;-2.286;2023-09-19T12:27:52;2.58;;;0.82;;
23732;SDS011;12047;53.450;-2.286;2023-09-19T12:32:55;2.88;;;0.60;;
23732;SDS011;12047;53.450;-2.286;2023-09-19T12:37:59;4.20;;;1.15;;
23732;SDS011;12047;53.450;-2.286;2023-09-19T12:43:00;7.68;;;1.02;;
23732;SDS011;12047;53.450;-2.286;2023-09-19T12:48:17;4.00;;;0.60;;
23732;SDS011;12047;53.450;-2.286;2023-09-19T12:53:26;1.98;;;0.60;;
23732;SDS011;12047;53.450;-2.286;2023-09-19T12:58:29;4.10;;;0.83;;
23732;SDS011;12047;53.450;-2.286;2023-09-19T13:03:30;3.45;;;0.70;;
23732;SDS011;12047;53.450;-2.286;2023-09-19T13:08:37;3.70;;;1.00;;
23732;SDS011;12047;53.450;-2.286;2023-09-19T13:18:45;4.70;;;1.35;;
23732;SDS011;12047;53.450;-2.286;2023-09-19T13:23:51;4.90;;;1.30;;
23732;SDS011;12047;53.450;-2.286;2023-09-19T13:28:57;2.70;;;0.60;;
23732;SDS011;12047;53.450;-2.286;2023-09-19T13:33:57;4.97;;;1.20;;
23732;SDS011;12047;53.450;-2.286;2023-09-19T13:38:58;4.45;;;1.15;;
23732;SDS011;12047;53.450;-2.286;2023-09-19T13:43:58;2.90;;;1.02;;
23732;SDS011;12047;53.450;-2.286;2023-09-19T13:48:59;4.88;;;1.13;;
23732;SDS011;12047;53.450;-2.286;2023-09-19T13:53:59;1.90;;;0.80;;
23732;SDS011;12047;53.450;-2.286;2023-09-19T13:59:00;2.80;;;0.60;;
23732;SDS011;12047;53.450;-2.286;2023-09-19T14:04:00;2.08;;;0.70;;
23732;SDS011;12047;53.450;-2.286;2023-09-19T14:09:02;4.88;;;1.00;;
23732;SDS011;12047;53.450;-2.286;2023-09-19T14:14:03;4.03;;;1.30;;
23732;SDS011;12047;53.450;-2.286;2023-09-19T14:19:04;7.55;;;1.83;;
23732;SDS011;12047;53.450;-2.286;2023-09-19T14:24:05;11.23;;;2.13;;
23732;SDS011;12047;53.450;-2.286;2023-09-19T14:29:09;15.50;;;2.85;;
23732;SDS011;12047;53.450;-2.286;2023-09-19T14:34:11;14.35;;;2.92;;
23732;SDS011;12047;53.450;-2.286;2023-09-19T14:39:12;17.05;;;3.00;;
23732;SDS011;12047;53.450;-2.286;2023-09-19T14:44:12;21.98;;;3.67;;
23732;SDS011;12047;53.450;-2.286;2023-09-19T14:49:13;18.52;;;3.70;;
23732;SDS011;12047;53.450;-2.286;2023-09-19T14:54:16;20.77;;;3.80;;
23732;SDS011;12047;53.450;-2.286;2023-09-19T14:59:17;20.67;;;4.00;;
23732;SDS011;12047;53.450;-2.286;2023-09-19T15:04:17;28.35;;;4.28;;
23732;SDS011;12047;53.450;-2.286;2023-09-19T15:09:18;22.77;;;4.60;;
23732;SDS011;12047;53.450;-2.286;2023-09-19T15:14:19;25.15;;;4.82;;
23732;SDS011;12047;53.450;-2.286;2023-09-19T15:19:21;24.35;;;4.22;;
23732;SDS011;12047;53.450;-2.286;2023-09-19T15:24:22;24.77;;;4.57;;
23732;SDS011;12047;53.450;-2.286;2023-09-19T15:29:23;18.52;;;3.72;;
23732;SDS011;12047;53.450;-2.286;2023-09-19T15:34:23;14.20;;;2.97;;
23732;SDS011;12047;53.450;-2.286;2023-09-19T15:39:24;16.52;;;3.38;;
23732;SDS011;12047;53.450;-2.286;2023-09-19T15:44:24;15.68;;;3.72;;
23732;SDS011;12047;53.450;-2.286;2023-09-19T15:49:28;17.20;;;3.20;;
23732;SDS011;12047;53.450;-2.286;2023-09-19T15:54:28;14.95;;;3.13;;
23732;SDS011;12047;53.450;-2.286;2023-09-19T15:59:29;15.25;;;3.10;;
23732;SDS011;12047;53.450;-2.286;2023-09-19T16:04:30;13.70;;;2.72;;
23732;SDS011;12047;53.450;-2.286;2023-09-19T16:09:31;18.65;;;3.58;;
23732;SDS011;12047;53.450;-2.286;2023-09-19T16:14:31;12.10;;;2.83;;
23732;SDS011;12047;53.450;-2.286;2023-09-19T16:19:32;12.00;;;2.88;;
23732;SDS011;12047;53.450;-2.286;2023-09-19T16:24:33;17.35;;;3.58;;
23732;SDS011;12047;53.450;-2.286;2023-09-19T16:29:34;12.10;;;2.75;;
23732;SDS011;12047;53.450;-2.286;2023-09-19T16:34:35;16.00;;;3.55;;
23732;SDS011;12047;53.450;-2.286;2023-09-19T16:39:35;15.65;;;3.10;;
23732;SDS011;12047;53.450;-2.286;2023-09-19T16:44:36;16.75;;;4.13;;
23732;SDS011;12047;53.450;-2.286;2023-09-19T16:49:41;12.88;;;2.85;;
23732;SDS011;12047;53.450;-2.286;2023-09-19T16:54:48;14.20;;;2.88;;
23732;SDS011;12047;53.450;-2.286;2023-09-19T16:59:51;15.63;;;4.05;;
23732;SDS011;12047;53.450;-2.286;2023-09-19T17:04:56;15.48;;;3.03;;
23732;SDS011;12047;53.450;-2.286;2023-09-19T17:09:57;13.38;;;2.72;;
23732;SDS011;12047;53.450;-2.286;2023-09-19T17:14:57;14.90;;;2.72;;
23732;SDS011;12047;53.450;-2.286;2023-09-19T17:19:58;15.82;;;3.30;;
23732;SDS011;12047;53.450;-2.286;2023-09-19T17:24:58;12.93;;;2.67;;
23732;SDS011;12047;53.450;-2.286;2023-09-19T17:29:58;14.77;;;2.80;;
23732;SDS011;12047;53.450;-2.286;2023-09-19T17:34:59;11.77;;;2.63;;
23732;SDS011;12047;53.450;-2.286;2023-09-19T17:39:59;12.68;;;3.60;;
23732;SDS011;12047;53.450;-2.286;2023-09-19T17:45:04;15.63;;;3.35;;
23732;SDS011;12047;53.450;-2.286;2023-09-19T17:50:05;15.05;;;3.38;;
23732;SDS011;12047;53.450;-2.286;2023-09-19T17:55:07;14.10;;;3.22;;
23732;SDS011;12047;53.450;-2.286;2023-09-19T18:00:12;14.10;;;3.10;;
23732;SDS011;12047;53.450;-2.286;2023-09-19T18:05:13;15.68;;;3.15;;
23732;SDS011;12047;53.450;-2.286;2023-09-19T18:10:16;11.00;;;2.80;;
23732;SDS011;12047;53.450;-2.286;2023-09-19T18:15:17;12.23;;;2.70;;
23732;SDS011;12047;53.450;-2.286;2023-09-19T18:20:17;9.68;;;2.20;;
23732;SDS011;12047;53.450;-2.286;2023-09-19T18:25:19;7.15;;;1.75;;
23732;SDS011;12047;53.450;-2.286;2023-09-19T18:30:19;11.30;;;2.30;;
23732;SDS011;12047;53.450;-2.286;2023-09-19T18:35:21;11.10;;;2.97;;
23732;SDS011;12047;53.450;-2.286;2023-09-19T18:40:23;17.70;;;3.22;;
23732;SDS011;12047;53.450;-2.286;2023-09-19T18:45:24;17.85;;;3.53;;
23732;SDS011;12047;53.450;-2.286;2023-09-19T18:50:25;19.25;;;3.88;;
23732;SDS011;12047;53.450;-2.286;2023-09-19T18:55:26;16.10;;;3.80;;
23732;SDS011;12047;53.450;-2.286;2023-09-19T19:00:26;16.15;;;3.28;;
23732;SDS011;12047;53.450;-2.286;2023-09-19T19:05:30;13.13;;;3.00;;
23732;SDS011;12047;53.450;-2.286;2023-09-19T19:10:32;17.75;;;3.67;;
23732;SDS011;12047;53.450;-2.286;2023-09-19T19:15:38;15.18;;;3.38;;
23732;SDS011;12047;53.450;-2.286;2023-09-19T19:20:38;12.98;;;3.38;;
23732;SDS011;12047;53.450;-2.286;2023-09-19T19:25:47;13.80;;;3.70;;
23732;SDS011;12047;53.450;-2.286;2023-09-19T19:30:47;16.48;;;3.72;;
23732;SDS011;12047;53.450;-2.286;2023-09-19T19:35:48;17.08;;;3.78;;
23732;SDS011;12047;53.450;-2.286;2023-09-19T19:40:56;17.20;;;4.25;;
23732;SDS011;12047;53.450;-2.286;2023-09-19T19:46:02;17.27;;;4.03;;
23732;SDS011;12047;53.450;-2.286;2023-09-19T19:51:09;15.02;;;3.65;;
23732;SDS011;12047;53.450;-2.286;2023-09-19T19:56:16;15.80;;;3.22;;
23732;SDS011;12047;53.450;-2.286;2023-09-19T20:01:16;17.50;;;4.32;;
23732;SDS011;12047;53.450;-2.286;2023-09-19T20:06:17;19.67;;;3.40;;
23732;SDS011;12047;53.450;-2.286;2023-09-19T20:32:04;10.77;;;3.10;;
23732;SDS011;12047;53.450;-2.286;2023-09-19T20:37:09;13.70;;;3.10;;
23732;SDS011;12047;53.450;-2.286;2023-09-19T20:57:40;13.20;;;2.65;;
23732;SDS011;12047;53.450;-2.286;2023-09-19T21:02:41;11.98;;;2.72;;
23732;SDS011;12047;53.450;-2.286;2023-09-19T21:07:47;8.90;;;2.40;;
23732;SDS011;12047;53.450;-2.286;2023-09-19T21:12:48;12.98;;;3.30;;
23732;SDS011;12047;53.450;-2.286;2023-09-19T21:17:50;10.98;;;2.78;;
23732;SDS011;12047;53.450;-2.286;2023-09-19T21:22:52;10.90;;;3.20;;
23732;SDS011;12047;53.450;-2.286;2023-09-19T21:27:56;15.35;;;2.70;;
23732;SDS011;12047;53.450;-2.286;2023-09-19T21:33:00;8.18;;;2.80;;
23732;SDS011;12047;53.450;-2.286;2023-09-19T21:38:01;10.32;;;3.00;;
23732;SDS011;12047;53.450;-2.286;2023-09-19T21:43:01;12.70;;;3.38;;
23732;SDS011;12047;53.450;-2.286;2023-09-19T21:48:08;10.50;;;2.97;;
23732;SDS011;12047;53.450;-2.286;2023-09-19T21:53:10;11.55;;;2.83;;
23732;SDS011;12047;53.450;-2.286;2023-09-19T22:03:38;14.45;;;3.08;;
23732;SDS011;12047;53.450;-2.286;2023-09-19T22:08:40;14.43;;;3.45;;
23732;SDS011;12047;53.450;-2.286;2023-09-19T22:13:41;11.85;;;3.20;;
23732;SDS011;12047;53.450;-2.286;2023-09-19T22:18:43;9.70;;;3.08;;
23732;SDS011;12047;53.450;-2.286;2023-09-19T22:23:50;16.40;;;3.97;;
23732;SDS011;12047;53.450;-2.286;2023-09-19T22:28:53;7.22;;;2.33;;
23732;SDS011;12047;53.450;-2.286;2023-09-19T22:34:02;11.98;;;2.47;;
23732;SDS011;12047;53.450;-2.286;2023-09-19T22:39:06;11.75;;;3.13;;
23732;SDS011;12047;53.450;-2.286;2023-09-19T22:44:16;10.98;;;3.00;;
23732;SDS011;12047;53.450;-2.286;2023-09-19T22:49:17;11.73;;;2.63;;
23732;SDS011;12047;53.450;-2.286;2023-09-19T22:59:28;7.70;;;1.95;;
23732;SDS011;12047;53.450;-2.286;2023-09-19T23:04:29;7.05;;;1.83;;
23732;SDS011;12047;53.450;-2.286;2023-09-19T23:09:30;5.97;;;1.77;;
23732;SDS011;12047;53.450;-2.286;2023-09-19T23:20:02;5.75;;;1.63;;
23732;SDS011;12047;53.450;-2.286;2023-09-19T23:25:09;6.13;;;1.45;;
23732;SDS011;12047;53.450;-2.286;2023-09-19T23:30:13;6.68;;;1.33;;
23732;SDS011;12047;53.450;-2.286;2023-09-19T23:35:17;3.88;;;0.73;;
23732;SDS011;12047;53.450;-2.286;2023-09-19T23:40:20;4.95;;;1.20;;
23732;SDS011;12047;53.450;-2.286;2023-09-19T23:50:32;4.45;;;1.17;;
23732;SDS011;12047;53.450;-2.286;2023-09-19T23:55:34;4.07;;;1.20;;
